Time;durP1;ratioP1;P1;durP2;ratioP2;P2;SDS_P1;SDS_P2;PMS_P1;PMS_P2;Temp;Humidity;BMP_temperature;BMP_pressure;BME280_temperature;BME280_humidity;BME280_pressure;Samples;Min_cycle;Max_cycle;Signal;HPM_P1;HPM_P2
2021/06/07 00:01:18;;;;;;;4.75;3.70;;;17.20;99.90;;;;;;5068706;28;20449;-57
2021/06/07 00:03:44;;;;;;;6.35;4.95;;;17.20;99.90;;;;;;5087074;28;20150;-56
2021/06/07 00:06:10;;;;;;;6.70;4.80;;;17.20;99.90;;;;;;5088915;28;20054;-57
2021/06/07 00:08:36;;;;;;;6.10;4.45;;;17.10;99.90;;;;;;5089099;28;20036;-57
2021/06/07 00:11:02;;;;;;;5.32;3.60;;;17.20;99.90;;;;;;5088955;28;20032;-57
2021/06/07 00:13:28;;;;;;;3.97;3.00;;;17.40;99.90;;;;;;5088319;28;20077;-57
2021/06/07 00:15:55;;;;;;;5.32;3.80;;;17.40;99.90;;;;;;5089112;28;20020;-57
2021/06/07 00:18:23;;;;;;;4.22;3.55;;;17.40;99.90;;;;;;5088861;28;20043;-57
2021/06/07 00:20:56;;;;;;;4.45;3.47;;;17.30;99.90;;;;;;5088398;28;20501;-57
2021/06/07 00:23:22;;;;;;;5.30;3.90;;;17.40;99.90;;;;;;5088755;28;20418;-57
2021/06/07 00:25:52;;;;;;;5.22;3.50;;;17.40;99.90;;;;;;5087310;28;20024;-58
2021/06/07 00:28:17;;;;;;;5.55;3.92;;;17.30;99.90;;;;;;5088809;28;20024;-57
2021/06/07 00:30:43;;;;;;;4.75;3.38;;;17.30;99.90;;;;;;5088056;28;20035;-58
2021/06/07 00:33:09;;;;;;;4.00;3.10;;;17.40;99.90;;;;;;5088492;28;20047;-57
2021/06/07 00:35:35;;;;;;;5.75;4.15;;;17.40;99.90;;;;;;5088830;28;20020;-57
2021/06/07 00:38:00;;;;;;;6.38;4.50;;;17.30;99.90;;;;;;5088497;28;20107;-57
2021/06/07 00:40:29;;;;;;;5.13;4.18;;;17.30;99.90;;;;;;5088070;28;20028;-57
2021/06/07 00:42:56;;;;;;;5.57;3.97;;;17.30;99.90;;;;;;5088388;28;20146;-57
2021/06/07 00:45:25;;;;;;;6.13;4.30;;;17.30;99.90;;;;;;5088293;28;20024;-57
2021/06/07 00:47:52;;;;;;;6.70;4.00;;;17.20;99.90;;;;;;5088177;28;20421;-57
2021/06/07 00:50:44;;;;;;;6.65;3.97;;;17.20;99.90;;;;;;5087627;28;20429;-57
2021/06/07 00:53:13;;;;;;;4.97;3.50;;;17.20;99.90;;;;;;5086784;28;20025;-57
2021/06/07 00:55:48;;;;;;;4.80;3.95;;;17.20;99.90;;;;;;5087717;28;20106;-57
2021/06/07 00:58:15;;;;;;;5.55;4.00;;;17.20;99.90;;;;;;5088076;28;20043;-57
2021/06/07 01:00:41;;;;;;;4.82;3.75;;;17.30;99.90;;;;;;5087708;28;20059;-57
2021/06/07 01:03:08;;;;;;;4.25;3.60;;;17.20;99.90;;;;;;5087866;28;20078;-57
2021/06/07 01:05:35;;;;;;;4.00;3.03;;;17.20;99.90;;;;;;5088146;28;20390;-57
2021/06/07 01:08:00;;;;;;;5.47;3.53;;;17.30;99.90;;;;;;5087934;28;20025;-57
2021/06/07 01:10:27;;;;;;;5.80;4.40;;;17.20;99.90;;;;;;5087499;28;20028;-57
2021/06/07 01:12:53;;;;;;;5.97;4.13;;;17.00;99.90;;;;;;5087676;28;20501;-57
2021/06/07 01:15:19;;;;;;;4.97;4.07;;;17.00;99.90;;;;;;5087978;28;20019;-57
2021/06/07 01:17:45;;;;;;;6.38;4.60;;;17.10;99.90;;;;;;5087290;28;20044;-57
2021/06/07 01:20:14;;;;;;;5.63;4.60;;;17.00;99.90;;;;;;5087414;28;20028;-57
2021/06/07 01:22:40;;;;;;;7.40;4.78;;;17.00;99.90;;;;;;5087175;28;20016;-57
2021/06/07 01:25:10;;;;;;;5.70;3.78;;;17.10;99.90;;;;;;5087643;28;20028;-57
2021/06/07 01:27:37;;;;;;;5.65;4.07;;;17.10;99.90;;;;;;5087502;28;20028;-57
2021/06/07 01:30:12;;;;;;;6.03;3.90;;;17.00;99.90;;;;;;5088097;28;20028;-57
2021/06/07 01:32:37;;;;;;;5.63;4.13;;;17.00;99.90;;;;;;5087039;28;20099;-56
2021/06/07 01:35:06;;;;;;;4.22;3.38;;;17.00;99.90;;;;;;5079083;28;20615;-57
2021/06/07 01:37:33;;;;;;;3.78;3.15;;;16.90;99.90;;;;;;5065883;28;20150;-57
2021/06/07 01:39:58;;;;;;;6.32;4.60;;;17.00;99.90;;;;;;5072973;28;20521;-56
2021/06/07 01:42:24;;;;;;;5.45;4.00;;;16.90;99.90;;;;;;5065409;28;20063;-57
2021/06/07 01:44:50;;;;;;;6.60;4.93;;;16.90;99.90;;;;;;5065459;28;20063;-58
2021/06/07 01:47:16;;;;;;;5.10;3.78;;;16.80;99.90;;;;;;5065343;28;20514;-58
2021/06/07 01:49:44;;;;;;;6.35;4.38;;;16.90;99.90;;;;;;5064068;28;20043;-56
2021/06/07 01:52:10;;;;;;;5.13;4.10;;;16.90;99.90;;;;;;5072435;28;20013;-57
2021/06/07 01:54:36;;;;;;;6.65;4.68;;;16.90;99.90;;;;;;5086096;28;20032;-57
2021/06/07 01:57:03;;;;;;;6.65;4.57;;;16.80;99.90;;;;;;5086197;28;20020;-57
2021/06/07 01:59:28;;;;;;;8.00;5.32;;;16.80;99.90;;;;;;5085156;28;20417;-57
2021/06/07 02:01:54;;;;;;;6.63;4.50;;;16.80;99.90;;;;;;5085530;28;20020;-57
2021/06/07 02:04:21;;;;;;;6.22;4.25;;;16.90;99.90;;;;;;5085580;28;20028;-57
2021/06/07 02:06:47;;;;;;;7.30;5.05;;;17.00;99.90;;;;;;5084699;28;20029;-57
2021/06/07 02:09:14;;;;;;;7.00;4.72;;;16.90;99.90;;;;;;5084879;28;20101;-57
2021/06/07 02:11:40;;;;;;;5.55;4.32;;;16.80;99.90;;;;;;5083944;28;20571;-58
2021/06/07 02:14:06;;;;;;;7.10;4.95;;;16.90;99.90;;;;;;5086063;28;20451;-57
2021/06/07 02:16:34;;;;;;;5.40;4.25;;;16.70;99.90;;;;;;5084918;28;20107;-58
2021/06/07 02:19:02;;;;;;;6.65;3.95;;;16.90;99.90;;;;;;5085543;28;20048;-58
2021/06/07 02:21:29;;;;;;;6.18;4.20;;;16.90;99.90;;;;;;5085088;28;20030;-57
2021/06/07 02:23:55;;;;;;;4.68;3.78;;;16.90;99.90;;;;;;5085404;28;20417;-57
2021/06/07 02:26:23;;;;;;;4.53;3.70;;;17.00;99.90;;;;;;5085050;28;20063;-57
2021/06/07 02:28:51;;;;;;;5.45;3.40;;;17.10;99.90;;;;;;5076092;28;20039;-57
2021/06/07 02:31:18;;;;;;;4.40;3.38;;;17.10;99.90;;;;;;5064881;28;20062;-58
2021/06/07 02:33:46;;;;;;;5.15;3.40;;;17.10;99.90;;;;;;5064588;28;20033;-57
2021/06/07 02:36:12;;;;;;;4.28;3.20;;;17.00;99.90;;;;;;5065232;28;20406;-58
2021/06/07 02:38:39;;;;;;;5.25;4.03;;;17.10;99.90;;;;;;5071630;28;20089;-58
2021/06/07 02:41:05;;;;;;;4.47;3.60;;;17.00;99.90;;;;;;5074254;28;20039;-57
2021/06/07 02:43:30;;;;;;;4.85;3.67;;;16.90;99.90;;;;;;5076505;28;20040;-57
2021/06/07 02:45:56;;;;;;;6.47;4.30;;;16.90;99.90;;;;;;5073153;28;20236;-58
2021/06/07 02:48:22;;;;;;;4.82;3.95;;;16.70;99.90;;;;;;5077280;28;20075;-57
2021/06/07 02:50:48;;;;;;;5.38;4.03;;;16.80;99.90;;;;;;5064713;28;20059;-58
2021/06/07 02:53:15;;;;;;;4.40;3.38;;;16.80;99.90;;;;;;5080249;28;20119;-57
2021/06/07 02:55:52;;;;;;;5.30;3.97;;;16.80;99.90;;;;;;5085966;28;20089;-57
2021/06/07 02:58:21;;;;;;;5.32;3.60;;;16.80;99.90;;;;;;5086387;28;20028;-57
2021/06/07 03:00:46;;;;;;;5.22;3.80;;;16.70;99.90;;;;;;5085783;28;20024;-57
2021/06/07 03:03:13;;;;;;;4.50;3.20;;;16.80;99.90;;;;;;5085367;28;20059;-57
2021/06/07 03:05:40;;;;;;;5.95;3.75;;;16.80;99.90;;;;;;5086033;28;20375;-57
2021/06/07 03:08:10;;;;;;;5.32;3.72;;;16.70;99.90;;;;;;5076439;28;20032;-57
2021/06/07 03:10:37;;;;;;;5.38;3.95;;;16.70;99.90;;;;;;5065772;28;20024;-57
2021/06/07 03:13:03;;;;;;;4.78;3.78;;;16.70;99.90;;;;;;5075804;28;20807;-57
2021/06/07 03:15:30;;;;;;;5.82;4.45;;;16.70;99.90;;;;;;5084664;28;20429;-58
2021/06/07 03:17:56;;;;;;;6.75;4.20;;;16.70;99.90;;;;;;5087432;28;20077;-58
2021/06/07 03:20:27;;;;;;;6.63;4.70;;;16.60;99.90;;;;;;5088651;28;20020;-57
2021/06/07 03:22:58;;;;;;;6.60;4.68;;;16.60;99.90;;;;;;5088276;28;20031;-58
2021/06/07 03:25:24;;;;;;;5.82;4.03;;;16.70;99.90;;;;;;5075090;28;20415;-57
2021/06/07 03:27:51;;;;;;;5.10;4.07;;;16.80;99.90;;;;;;5070396;28;20073;-58
2021/06/07 03:30:17;;;;;;;5.95;4.70;;;16.90;99.90;;;;;;5077420;28;20776;-57
2021/06/07 03:32:45;;;;;;;5.47;4.40;;;16.80;99.90;;;;;;5070716;28;20040;-57
2021/06/07 03:35:14;;;;;;;6.47;4.40;;;16.70;99.90;;;;;;5075118;28;20482;-57
2021/06/07 03:37:40;;;;;;;5.88;4.38;;;16.70;99.90;;;;;;5076579;28;20028;-57
2021/06/07 03:40:15;;;;;;;6.65;5.15;;;16.70;99.90;;;;;;5086811;28;20405;-57
2021/06/07 03:42:40;;;;;;;;;;;16.70;99.90;;;;;;5089113;28;20123;-57
2021/06/07 03:45:08;;;;;;;5.30;4.05;;;16.70;99.90;;;;;;5088586;28;19998;-57
2021/06/07 03:47:34;;;;;;;5.82;3.92;;;16.80;99.90;;;;;;5087385;28;20024;-58
2021/06/07 03:50:02;;;;;;;5.13;3.75;;;16.80;99.90;;;;;;5088152;28;20038;-58
2021/06/07 03:52:28;;;;;;;5.18;3.50;;;16.70;99.90;;;;;;5075024;28;20038;-57
2021/06/07 03:54:54;;;;;;;5.20;3.70;;;16.80;99.90;;;;;;5089306;28;20038;-58
2021/06/07 03:57:19;;;;;;;5.15;3.60;;;16.80;99.90;;;;;;5078800;28;20016;-57
2021/06/07 03:59:45;;;;;;;6.05;3.80;;;16.70;99.90;;;;;;5068655;28;20105;-58
2021/06/07 04:02:12;;;;;;;3.92;3.22;;;16.70;99.90;;;;;;5068691;28;20048;-57
2021/06/07 04:04:40;;;;;;;3.65;3.25;;;16.80;99.90;;;;;;5068778;28;20032;-58
2021/06/07 04:07:06;;;;;;;5.55;4.00;;;16.80;99.90;;;;;;5069537;28;20024;-57
2021/06/07 04:09:32;;;;;;;5.35;3.22;;;16.70;99.90;;;;;;5077808;28;20032;-57
2021/06/07 04:11:57;;;;;;;4.03;3.30;;;16.70;99.90;;;;;;5088754;28;20028;-58
2021/06/07 04:14:23;;;;;;;5.40;3.35;;;16.70;99.90;;;;;;5086085;28;20035;-57
2021/06/07 04:16:49;;;;;;;7.35;3.92;;;16.70;99.90;;;;;;5083578;28;20100;-57
2021/06/07 04:19:14;;;;;;;4.55;3.40;;;16.60;99.90;;;;;;5088032;28;20031;-57
2021/06/07 04:21:40;;;;;;;4.18;3.50;;;16.60;99.90;;;;;;5087207;28;20433;-57
2021/06/07 04:24:07;;;;;;;6.70;4.95;;;16.60;99.90;;;;;;5089313;28;20029;-57
2021/06/07 04:26:35;;;;;;;5.63;4.50;;;16.40;99.90;;;;;;5088794;28;20107;-57
2021/06/07 04:29:00;;;;;;;5.30;4.20;;;16.50;99.90;;;;;;5087761;28;20050;-58
2021/06/07 04:31:26;;;;;;;6.63;4.47;;;16.50;99.90;;;;;;5087945;28;20047;-58
2021/06/07 04:33:52;;;;;;;5.35;3.78;;;16.50;99.90;;;;;;5088421;28;20016;-57
2021/06/07 04:36:18;;;;;;;5.38;4.05;;;16.50;99.90;;;;;;5088766;28;20032;-58
2021/06/07 04:38:44;;;;;;;4.78;3.22;;;16.60;99.90;;;;;;5088115;28;20020;-58
2021/06/07 04:41:10;;;;;;;3.28;2.83;;;16.70;99.90;;;;;;5086939;28;20394;-57
2021/06/07 04:43:36;;;;;;;2.97;2.67;;;16.70;99.90;;;;;;5088635;28;20024;-57
2021/06/07 04:46:03;;;;;;;4.13;3.17;;;16.70;99.90;;;;;;5079202;28;20081;-57
2021/06/07 04:48:28;;;;;;;4.63;3.28;;;16.70;99.90;;;;;;5067462;28;20123;-58
2021/06/07 04:50:54;;;;;;;4.72;3.08;;;16.60;99.90;;;;;;5067849;28;20104;-58
2021/06/07 04:53:20;;;;;;;3.53;2.65;;;16.70;99.90;;;;;;5067930;28;20457;-58
2021/06/07 04:55:49;;;;;;;3.40;2.42;;;16.70;99.90;;;;;;5067652;28;20031;-58
2021/06/07 04:58:19;;;;;;;2.35;2.08;;;16.80;99.90;;;;;;5067827;28;20016;-58
2021/06/07 05:00:48;;;;;;;4.00;2.83;;;16.80;99.90;;;;;;5067369;28;20027;-58
2021/06/07 05:03:14;;;;;;;3.30;2.38;;;16.80;99.90;;;;;;5080666;28;20020;-58
2021/06/07 05:05:40;;;;;;;3.20;2.83;;;16.80;99.90;;;;;;5087370;28;20050;-58
2021/06/07 05:08:06;;;;;;;2.30;2.00;;;16.80;99.90;;;;;;5088503;28;20478;-58
2021/06/07 05:10:32;;;;;;;4.40;3.15;;;16.80;99.90;;;;;;5087524;28;20528;-57
2021/06/07 05:12:58;;;;;;;3.90;3.05;;;16.80;99.90;;;;;;5074121;28;20032;-58
2021/06/07 05:15:24;;;;;;;4.25;3.40;;;16.60;99.90;;;;;;5084944;28;20042;-57
2021/06/07 05:17:50;;;;;;;6.63;4.22;;;16.60;99.90;;;;;;5080191;28;20016;-58
2021/06/07 05:20:22;;;;;;;5.88;3.28;;;16.40;99.90;;;;;;5065795;28;20029;-58
2021/06/07 05:22:49;;;;;;;4.57;3.10;;;16.60;99.90;;;;;;5065547;28;20020;-58
2021/06/07 05:25:16;;;;;;;4.03;2.97;;;16.60;99.90;;;;;;5064740;28;20020;-58
2021/06/07 05:27:42;;;;;;;4.93;3.70;;;16.60;99.90;;;;;;5065439;28;20082;-58
2021/06/07 05:30:09;;;;;;;4.18;3.40;;;16.60;99.90;;;;;;5072281;28;20087;-58
2021/06/07 05:32:35;;;;;;;5.28;3.95;;;16.60;99.90;;;;;;5086151;28;20485;-58
2021/06/07 05:35:04;;;;;;;5.95;4.30;;;16.50;99.90;;;;;;5085704;28;20032;-58
2021/06/07 05:37:31;;;;;;;6.72;4.95;;;16.50;99.90;;;;;;5085381;28;20023;-58
2021/06/07 05:39:57;;;;;;;5.97;4.72;;;16.50;99.90;;;;;;5085454;28;20044;-57
2021/06/07 05:42:22;;;;;;;6.28;4.07;;;16.50;99.90;;;;;;5085512;28;20031;-57
2021/06/07 05:44:49;;;;;;;5.20;4.07;;;16.50;99.90;;;;;;5085891;28;20032;-58
2021/06/07 05:47:15;;;;;;;5.28;3.72;;;16.50;99.90;;;;;;5085541;28;20674;-58
2021/06/07 05:49:40;;;;;;;4.90;3.85;;;16.60;99.90;;;;;;5085335;28;20043;-58
2021/06/07 05:52:08;;;;;;;5.88;4.18;;;16.50;99.90;;;;;;5086117;28;20448;-58
2021/06/07 05:54:35;;;;;;;5.32;3.60;;;16.50;99.90;;;;;;5085975;28;20105;-58
2021/06/07 05:57:01;;;;;;;5.80;4.05;;;16.50;99.90;;;;;;5085575;28;20483;-58
2021/06/07 05:59:28;;;;;;;6.85;4.30;;;16.60;99.90;;;;;;5085113;28;20430;-57
2021/06/07 06:01:55;;;;;;;5.85;4.18;;;16.50;99.90;;;;;;5085217;28;20035;-58
2021/06/07 06:04:24;;;;;;;6.13;4.80;;;16.40;99.90;;;;;;5077265;28;20501;-58
2021/06/07 06:06:50;;;;;;;6.28;4.53;;;16.30;99.90;;;;;;5085489;28;20031;-58
2021/06/07 06:09:16;;;;;;;7.35;5.15;;;16.40;99.90;;;;;;5085472;28;20036;-58
2021/06/07 06:11:43;;;;;;;6.07;4.35;;;16.50;99.90;;;;;;5084986;28;20406;-58
2021/06/07 06:14:10;;;;;;;7.32;4.63;;;16.40;99.90;;;;;;5085020;28;20072;-58
2021/06/07 06:16:36;;;;;;;6.05;4.55;;;16.40;99.90;;;;;;5084765;28;20028;-58
2021/06/07 06:19:02;;;;;;;6.28;4.75;;;16.50;99.90;;;;;;5085352;28;20277;-58
2021/06/07 06:21:29;;;;;;;7.13;4.72;;;16.40;99.90;;;;;;5084734;28;20024;-58
2021/06/07 06:23:56;;;;;;;7.13;5.13;;;16.40;99.90;;;;;;5085450;28;20069;-58
2021/06/07 06:26:23;;;;;;;5.90;4.65;;;16.40;99.90;;;;;;5084872;28;20539;-58
2021/06/07 06:28:50;;;;;;;8.10;5.20;;;16.40;99.90;;;;;;5083806;28;20036;-58
2021/06/07 06:31:16;;;;;;;6.35;4.57;;;16.40;99.90;;;;;;5084679;28;20051;-58
2021/06/07 06:33:42;;;;;;;5.72;4.35;;;16.40;99.90;;;;;;5084874;28;20028;-58
2021/06/07 06:36:09;;;;;;;5.50;4.05;;;16.60;99.90;;;;;;5083704;28;20425;-58
2021/06/07 06:38:35;;;;;;;3.65;3.25;;;16.60;99.90;;;;;;5085326;28;20020;-59
2021/06/07 06:41:03;;;;;;;5.20;3.58;;;16.60;99.90;;;;;;5084989;28;20016;-58
2021/06/07 06:43:29;;;;;;;4.05;3.35;;;16.60;99.90;;;;;;5074993;28;20532;-58
2021/06/07 06:45:55;;;;;;;6.00;3.85;;;16.60;99.90;;;;;;5082416;28;20052;-58
2021/06/07 06:48:20;;;;;;;5.22;3.75;;;16.60;99.90;;;;;;5082137;28;20495;-58
2021/06/07 06:50:46;;;;;;;4.05;3.15;;;16.60;99.90;;;;;;5064878;28;20448;-58
2021/06/07 06:53:17;;;;;;;5.65;4.20;;;16.60;99.90;;;;;;5073694;28;20036;-58
2021/06/07 06:55:45;;;;;;;5.45;4.13;;;16.50;99.90;;;;;;5073480;28;20111;-58
2021/06/07 06:58:11;;;;;;;5.50;4.13;;;16.50;99.90;;;;;;5087329;28;20828;-58
2021/06/07 07:00:39;;;;;;;6.40;4.53;;;16.50;99.90;;;;;;5086337;28;20393;-58
2021/06/07 07:03:10;;;;;;;5.30;4.25;;;16.50;99.90;;;;;;5089175;28;20035;-57
2021/06/07 07:05:37;;;;;;;5.35;3.65;;;16.60;99.90;;;;;;5088638;28;20024;-58
2021/06/07 07:08:03;;;;;;;5.18;3.72;;;16.60;99.90;;;;;;5089571;28;20036;-58
2021/06/07 07:10:29;;;;;;;5.88;4.18;;;16.70;99.90;;;;;;5100874;28;20500;-57
2021/06/07 07:12:56;;;;;;;7.25;4.63;;;16.60;99.90;;;;;;5098718;28;20042;-57
2021/06/07 07:15:21;;;;;;;6.72;4.50;;;16.50;99.90;;;;;;5088127;28;20024;-58
2021/06/07 07:17:47;;;;;;;6.50;4.95;;;16.50;99.90;;;;;;5087660;28;20278;-57
2021/06/07 07:20:14;;;;;;;7.13;4.60;;;16.50;99.90;;;;;;5088248;28;20031;-58
2021/06/07 07:22:42;;;;;;;7.25;5.05;;;16.60;99.90;;;;;;5088116;28;20044;-57
2021/06/07 07:25:09;;;;;;;7.85;5.28;;;16.60;99.90;;;;;;5088803;28;20048;-57
2021/06/07 07:27:36;;;;;;;7.53;5.38;;;16.50;99.90;;;;;;5088458;28;20138;-57
2021/06/07 07:30:08;;;;;;;7.18;4.65;;;16.50;99.90;;;;;;5088560;28;20416;-57
2021/06/07 07:32:35;;;;;;;7.82;5.50;;;16.70;99.90;;;;;;5088106;28;20028;-58
2021/06/07 07:35:01;;;;;;;5.80;4.68;;;16.60;99.90;;;;;;5087662;28;20565;-57
2021/06/07 07:37:27;;;;;;;5.53;4.35;;;16.70;99.90;;;;;;5087570;28;20107;-58
2021/06/07 07:39:52;;;;;;;5.53;3.97;;;16.80;99.90;;;;;;5075844;28;20028;-58
2021/06/07 07:42:18;;;;;;;4.55;3.50;;;16.90;99.90;;;;;;5069301;28;20040;-58
2021/06/07 07:44:44;;;;;;;4.40;3.80;;;16.90;99.90;;;;;;5076053;28;20035;-58
2021/06/07 07:47:09;;;;;;;5.53;4.10;;;16.90;99.90;;;;;;5083969;28;20103;-57
2021/06/07 07:49:36;;;;;;;5.10;4.13;;;16.90;99.90;;;;;;5080072;28;20031;-58
2021/06/07 07:52:04;;;;;;;4.22;3.70;;;17.00;99.90;;;;;;5088521;28;20096;-58
2021/06/07 07:54:31;;;;;;;4.60;3.80;;;16.90;99.90;;;;;;5070226;28;20040;-58
2021/06/07 07:56:57;;;;;;;7.32;4.47;;;16.80;99.90;;;;;;5068072;28;20540;-58
2021/06/07 07:59:23;;;;;;;6.28;4.38;;;16.90;99.90;;;;;;5068132;28;20052;-58
2021/06/07 08:01:49;;;;;;;7.70;5.45;;;16.90;99.90;;;;;;5068470;28;20056;-58
2021/06/07 08:04:14;;;;;;;6.50;4.90;;;16.90;99.90;;;;;;5067039;28;20090;-58
2021/06/07 08:06:42;;;;;;;5.60;4.63;;;16.90;99.90;;;;;;5086426;28;20032;-58
2021/06/07 08:09:08;;;;;;;5.40;4.32;;;17.00;99.90;;;;;;5088589;28;20028;-58
2021/06/07 08:11:33;;;;;;;5.78;3.92;;;17.10;99.90;;;;;;5088758;28;20469;-58
2021/06/07 08:13:59;;;;;;;4.32;3.25;;;17.20;99.90;;;;;;5088489;28;20027;-58
2021/06/07 08:16:26;;;;;;;3.65;2.92;;;17.30;99.90;;;;;;5085273;28;20071;-58
2021/06/07 08:18:52;;;;;;;5.03;3.42;;;17.40;99.90;;;;;;5075481;28;20032;-58
2021/06/07 08:21:18;;;;;;;4.50;3.67;;;17.20;99.90;;;;;;5095192;28;20023;-58
2021/06/07 08:23:45;;;;;;;4.63;3.38;;;17.30;99.90;;;;;;5086897;28;20032;-58
2021/06/07 08:26:12;;;;;;;5.97;4.50;;;17.30;99.90;;;;;;5087037;28;20490;-58
2021/06/07 08:28:38;;;;;;;5.47;4.50;;;17.30;99.90;;;;;;5085369;28;20509;-58
2021/06/07 08:31:04;;;;;;;5.68;4.07;;;17.30;99.90;;;;;;5087336;28;20031;-57
2021/06/07 08:33:33;;;;;;;6.28;4.53;;;17.30;99.90;;;;;;5086581;28;20470;-58
2021/06/07 08:35:59;;;;;;;6.07;4.25;;;17.20;99.90;;;;;;5086585;28;20541;-58
2021/06/07 08:38:25;;;;;;;3.92;3.17;;;17.40;99.90;;;;;;5086586;28;20165;-58
2021/06/07 08:40:53;;;;;;;3.38;2.92;;;17.50;99.90;;;;;;5086550;28;20024;-58
2021/06/07 08:43:23;;;;;;;4.00;3.00;;;17.50;99.90;;;;;;5086600;28;20027;-58
2021/06/07 08:45:50;;;;;;;2.63;2.42;;;17.50;99.90;;;;;;5086411;28;20047;-58
2021/06/07 08:48:16;;;;;;;3.97;3.45;;;17.60;99.90;;;;;;5086176;28;20032;-58
2021/06/07 08:50:42;;;;;;;4.03;3.42;;;17.50;99.90;;;;;;5086219;28;20076;-58
2021/06/07 08:53:08;;;;;;;5.32;3.80;;;17.50;99.90;;;;;;5086168;28;20027;-58
2021/06/07 08:55:36;;;;;;;3.75;3.10;;;17.60;99.90;;;;;;5086610;28;20168;-59
2021/06/07 08:58:04;;;;;;;5.38;3.28;;;17.60;99.90;;;;;;5087022;28;20088;-58
2021/06/07 09:00:33;;;;;;;4.10;3.10;;;17.60;99.90;;;;;;5086022;28;20021;-58
2021/06/07 09:03:08;;;;;;;4.47;3.65;;;17.50;99.90;;;;;;5086457;28;20028;-57
2021/06/07 09:05:34;;;;;;;5.05;4.10;;;17.50;99.90;;;;;;5086780;28;20085;-58
2021/06/07 09:08:04;;;;;;;3.85;3.15;;;17.50;99.90;;;;;;5086176;28;20031;-58
2021/06/07 09:10:33;;;;;;;4.65;3.38;;;17.50;99.90;;;;;;5077863;28;20028;-58
2021/06/07 09:13:04;;;;;;;5.07;4.05;;;17.60;99.90;;;;;;5073498;28;20028;-58
2021/06/07 09:15:43;;;;;;;4.35;3.30;;;17.50;99.90;;;;;;5068477;28;20051;-58
2021/06/07 09:18:12;;;;;;;3.42;2.92;;;17.60;99.90;;;;;;5083140;28;20545;-58
2021/06/07 09:20:40;;;;;;;3.45;2.53;;;17.70;99.90;;;;;;5097866;28;20493;-58
2021/06/07 09:23:14;;;;;;;2.88;2.50;;;17.90;99.90;;;;;;5090309;28;20024;-56
2021/06/07 09:25:44;;;;;;;2.88;2.58;;;17.90;99.90;;;;;;5094599;28;20028;-57
2021/06/07 09:28:22;;;;;;;3.42;2.90;;;17.90;99.90;;;;;;5085958;28;20489;-57
2021/06/07 09:30:59;;;;;;;4.03;2.80;;;17.80;99.90;;;;;;5084398;28;20513;-57
2021/06/07 09:33:47;;;;;;;2.90;2.60;;;17.70;99.90;;;;;;5075953;28;20028;-57
2021/06/07 09:36:27;;;;;;;2.67;2.33;;;17.70;99.90;;;;;;5087199;28;20032;-57
2021/06/07 09:38:57;;;;;;;2.08;1.83;;;17.80;99.90;;;;;;5066417;28;20103;-57
2021/06/07 09:41:25;;;;;;;3.40;2.40;;;17.90;99.90;;;;;;5066180;28;20056;-57
2021/06/07 09:43:54;;;;;;;3.80;2.38;;;18.00;99.90;;;;;;5064848;28;20620;-57
2021/06/07 09:46:24;;;;;;;3.50;2.45;;;17.90;99.90;;;;;;5066657;28;20121;-57
2021/06/07 09:49:05;;;;;;;2.78;2.25;;;17.90;99.90;;;;;;5068727;28;20229;-57
2021/06/07 09:51:31;;;;;;;3.22;2.92;;;17.90;99.90;;;;;;5072691;28;20093;-57
2021/06/07 09:53:58;;;;;;;2.95;2.60;;;17.90;99.90;;;;;;5085051;28;20028;-57
2021/06/07 09:56:24;;;;;;;2.83;2.28;;;18.00;99.90;;;;;;5080612;28;20040;-57
2021/06/07 09:58:50;;;;;;;2.13;1.92;;;18.10;99.90;;;;;;5065651;28;20028;-58
2021/06/07 10:01:30;;;;;;;2.92;2.13;;;18.10;99.90;;;;;;5071854;28;20039;-57
2021/06/07 10:03:58;;;;;;;3.17;2.55;;;18.10;99.90;;;;;;5086630;28;20049;-58
2021/06/07 10:06:35;;;;;;;3.63;3.22;;;18.10;99.90;;;;;;5074881;28;20024;-58
2021/06/07 10:09:08;;;;;;;5.63;3.40;;;18.20;99.90;;;;;;5066467;28;20021;-58
2021/06/07 10:11:43;;;;;;;3.47;2.72;;;18.30;99.90;;;;;;5065851;28;20111;-58
2021/06/07 10:14:08;;;;;;;3.70;2.80;;;18.30;99.90;;;;;;5078203;28;20505;-58
2021/06/07 10:16:36;;;;;;;3.30;2.70;;;18.20;99.90;;;;;;5066323;28;20069;-58
2021/06/07 10:19:05;;;;;;;3.03;2.50;;;18.10;99.90;;;;;;5066434;28;20032;-58
2021/06/07 10:21:31;;;;;;;2.75;2.45;;;18.10;99.90;;;;;;5065771;28;20094;-58
2021/06/07 10:23:58;;;;;;;3.50;2.60;;;18.30;99.90;;;;;;5066349;28;20153;-58
2021/06/07 10:26:23;;;;;;;2.63;2.28;;;18.30;99.90;;;;;;5067769;28;20104;-58
2021/06/07 10:28:54;;;;;;;2.10;1.90;;;18.30;99.90;;;;;;5068860;28;20107;-58
2021/06/07 10:31:21;;;;;;;2.28;2.05;;;18.40;99.90;;;;;;5070203;28;20482;-58
2021/06/07 10:34:03;;;;;;;2.33;2.13;;;18.30;99.90;;;;;;5071069;28;20025;-57
2021/06/07 10:36:33;;;;;;;2.58;2.20;;;18.40;99.90;;;;;;5089871;28;20066;-58
2021/06/07 10:39:14;;;;;;;5.07;2.58;;;18.40;99.90;;;;;;5095938;28;20024;-58
2021/06/07 10:42:09;;;;;;;2.78;2.47;;;18.50;99.90;;;;;;5073381;28;20032;-58
2021/06/07 10:44:39;;;;;;;2.35;1.85;;;18.50;99.90;;;;;;5064175;28;20102;-58
2021/06/07 10:47:11;;;;;;;1.85;1.75;;;18.70;99.90;;;;;;5075413;28;20023;-58
2021/06/07 10:49:57;;;;;;;2.35;2.05;;;18.80;99.90;;;;;;5077437;28;20028;-58
2021/06/07 10:52:27;;;;;;;3.13;2.25;;;18.70;99.90;;;;;;5084829;28;20093;-58
2021/06/07 10:54:59;;;;;;;2.10;1.90;;;18.80;99.90;;;;;;5066038;28;20074;-58
2021/06/07 10:57:31;;;;;;;2.10;1.90;;;18.80;99.90;;;;;;5065302;28;20394;-58
2021/06/07 11:00:20;;;;;;;2.90;2.00;;;18.80;99.90;;;;;;5065902;28;20025;-58
2021/06/07 11:02:47;;;;;;;1.58;1.48;;;18.80;99.90;;;;;;5065481;28;20114;-58
2021/06/07 11:05:28;;;;;;;2.35;2.00;;;18.80;99.90;;;;;;5072020;28;20016;-58
2021/06/07 11:08:03;;;;;;;1.92;1.73;;;18.90;99.90;;;;;;5085695;28;20067;-58
2021/06/07 11:10:31;;;;;;;2.40;1.90;;;18.90;99.90;;;;;;5085410;28;20385;-58
2021/06/07 11:13:25;;;;;;;1.83;1.70;;;18.90;99.90;;;;;;5084001;28;20064;-58
2021/06/07 11:15:57;;;;;;;2.72;1.92;;;18.90;99.90;;;;;;5088276;28;20085;-58
2021/06/07 11:18:55;;;;;;;1.98;1.52;;;18.90;99.90;;;;;;5085570;28;20024;-58
2021/06/07 11:21:25;;;;;;;2.20;1.85;;;19.00;99.90;;;;;;5085823;28;20107;-58
2021/06/07 11:23:51;;;;;;;1.70;1.60;;;19.10;99.90;;;;;;5084375;28;20025;-58
2021/06/07 11:26:34;;;;;;;1.60;1.50;;;19.10;99.90;;;;;;5070966;28;20023;-58
2021/06/07 11:29:00;;;;;;;1.50;1.40;;;19.00;99.90;;;;;;5068040;28;20521;-58
2021/06/07 11:31:31;;;;;;;1.75;1.65;;;19.10;99.90;;;;;;5070925;28;20086;-58
2021/06/07 11:34:01;;;;;;;1.52;1.42;;;19.10;99.90;;;;;;5067187;28;20594;-58
2021/06/07 11:36:50;;;;;;;1.63;1.52;;;19.20;99.90;;;;;;5073967;28;20020;-58
2021/06/07 11:39:21;;;;;;;1.50;1.40;;;19.10;99.90;;;;;;5088106;28;20036;-58
2021/06/07 11:41:54;;;;;;;1.73;1.30;;;19.10;99.90;;;;;;5072037;28;20020;-58
2021/06/07 11:44:46;;;;;;;2.03;1.73;;;19.10;99.90;;;;;;5069136;28;20032;-58
2021/06/07 11:47:49;;;;;;;1.40;1.30;;;19.20;99.90;;;;;;5068575;28;20028;-58
2021/06/07 11:50:19;;;;;;;1.65;1.55;;;19.20;99.90;;;;;;5077965;28;20536;-58
2021/06/07 11:52:52;;;;;;;1.50;1.40;;;19.30;99.90;;;;;;5072246;28;20533;-58
2021/06/07 11:55:26;;;;;;;1.50;1.40;;;19.30;99.90;;;;;;5068794;28;20021;-58
2021/06/07 11:58:03;;;;;;;1.40;1.30;;;19.40;99.90;;;;;;5083957;28;20027;-58
2021/06/07 12:00:34;;;;;;;2.33;1.70;;;19.50;99.90;;;;;;5088486;28;20020;-58
2021/06/07 12:03:10;;;;;;;1.63;1.52;;;19.50;99.90;;;;;;5086590;28;20107;-58
2021/06/07 12:05:36;;;;;;;1.83;1.67;;;19.60;99.90;;;;;;5074612;28;20040;-58
2021/06/07 12:08:11;;;;;;;3.42;2.67;;;19.60;99.90;;;;;;5082647;28;20028;-58
2021/06/07 12:10:39;;;;;;;1.73;1.55;;;19.30;99.90;;;;;;5084679;28;20107;-58
2021/06/07 12:13:23;;;;;;;2.30;2.10;;;19.40;99.90;;;;;;5067606;28;20410;-58
2021/06/07 12:15:55;;;;;;;3.67;2.42;;;19.50;99.90;;;;;;5066905;28;20020;-58
2021/06/07 12:18:34;;;;;;;2.83;2.60;;;19.50;99.90;;;;;;5067269;28;20020;-58
2021/06/07 12:21:18;;;;;;;3.97;3.00;;;19.70;99.90;;;;;;5066708;28;20103;-58
2021/06/07 12:23:55;;;;;;;2.78;2.40;;;19.70;99.90;;;;;;5066864;28;20078;-58
2021/06/07 12:29:19;;;;;;;1.60;1.50;;;19.90;99.90;;;;;;5066557;28;20170;-58
2021/06/07 12:32:03;;;;;;;2.03;1.83;;;20.00;99.90;;;;;;5072907;28;20108;-58
2021/06/07 12:34:29;;;;;;;2.30;1.90;;;20.00;99.90;;;;;;5086551;28;20107;-58
2021/06/07 12:36:55;;;;;;;2.30;1.98;;;20.10;99.90;;;;;;5074354;28;20342;-58
2021/06/07 12:39:20;;;;;;;1.85;1.70;;;20.10;99.90;;;;;;5080489;28;20568;-57
2021/06/07 12:41:47;;;;;;;2.58;2.38;;;20.10;99.90;;;;;;5106389;28;20102;-58
2021/06/07 12:44:13;;;;;;;2.08;1.88;;;20.00;99.90;;;;;;5107113;28;20455;-58
2021/06/07 12:46:47;;;;;;;3.30;2.50;;;19.90;99.90;;;;;;5106972;28;20080;-58
2021/06/07 12:49:26;;;;;;;2.10;1.90;;;19.90;99.90;;;;;;5093096;28;20036;-58
2021/06/07 12:52:10;;;;;;;2.50;1.73;;;20.00;99.90;;;;;;5086586;28;20569;-58
2021/06/07 12:54:36;;;;;;;3.87;2.03;;;20.10;99.90;;;;;;5087078;28;20032;-58
2021/06/07 12:57:03;;;;;;;1.55;1.45;;;20.10;99.90;;;;;;5086176;28;20077;-58
2021/06/07 12:59:34;;;;;;;2.05;1.83;;;20.20;99.90;;;;;;5086539;28;20016;-58